Flight Track Log - Related Links

Times and Time Zones

All times are in EDT time to prevent confusion due to time zone crossing. See the FLG3429 flight status page for this flight to view local times or setup timezone preferences in your user account.

Time Position Orientation Groundspeed Altitude Reporting Facility
EDT Latitude Longitude Course Direction KTS MPH feet Rate Location/Type
Wed 01:05:26 PM 42.9333 -78.7500 216° Southwest 146 168 1,500  Level Buffalo TRACON
Wed 01:05:56 PM 42.9167 -78.7667 216° Southwest 152 175 2,500 2,206 Climbing Buffalo TRACON
Wed 01:06:34 PM 42.9000 -78.8133 244° Southwest 187 215 4,000 1,800 Climbing Cleveland Center
Wed 01:07:36 PM 42.8883 -78.9008 260° West 247 284 5,500 2,146 Climbing Cleveland Center
Wed 01:08:37 PM 42.8747 -79.0072 260° West 274 315 8,400 2,537 Climbing Cleveland Center
Wed 01:09:39 PM 42.8608 -79.1086 259° West 277 319 10,700 1,839 Climbing Cleveland Center
Wed 01:10:41 PM 42.8447 -79.2281 260° West 322 371 12,200 1,742 Climbing Cleveland Center
Wed 01:11:43 PM 42.8275 -79.3492 259° West 324 373 14,300 1,902 Climbing Cleveland Center
Wed 01:12:44 PM 42.8053 -79.4969 258° West 332 382 16,100 1,561 Climbing Cleveland Center
Wed 01:13:46 PM 42.7864 -79.6203 258° West 334 384 17,500 1,065 Climbing Cleveland Center
Wed 01:14:48 PM 42.7678 -79.7456 259° West 335 386 18,300 774 Climbing Cleveland Center
Wed 01:15:50 PM 42.7497 -79.8719 259° West 340 391 19,100 829 Climbing Cleveland Center
Wed 01:16:51 PM 42.7453 -80.0047 267° West 346 398 20,000 439 Climbing Cleveland Center
Wed 01:17:53 PM 42.7383 -80.1411 266° West 357 411 20,000  Level Cleveland Center
Wed 01:18:55 PM 42.7336 -80.2847 267° West 373 429 20,000  Level Cleveland Center
Wed 01:19:57 PM 42.7275 -80.4267 267° West 376 433 20,000  Level Cleveland Center
Wed 01:20:59 PM 42.7208 -80.5889 267° West 369 425 20,000  Level Cleveland Center
Wed 01:22:00 PM 42.7147 -80.7294 267° West 369 425 20,000  Level Cleveland Center
Wed 01:23:02 PM 42.7078 -80.8694 266° West 369 425 20,000  Level Cleveland Center
Wed 01:24:04 PM 42.6936 -81.0061 262° West 366 421 20,000  Level Cleveland Center
Wed 01:25:06 PM 42.6789 -81.1400 262° West 361 415 20,000  Level Cleveland Center
Wed 01:26:08 PM 42.6642 -81.2661 261° West 342 394 20,000  Level Cleveland Center
Wed 01:27:09 PM 42.6492 -81.3903 261° West 333 383 20,000  Level Cleveland Center
Wed 01:28:11 PM 42.6356 -81.5142 262° West 333 383 20,000 -387 Level Cleveland Center
Wed 01:29:13 PM 42.6178 -81.6592 261° West 332 382 19,200 -871 Descending Cleveland Center
Wed 01:30:15 PM 42.6031 -81.7836 261° West 343 395 18,200 -968 Descending Cleveland Center
Wed 01:31:17 PM 42.5886 -81.9081 261° West 342 394 17,200 -968 Descending Cleveland Center
Wed 01:32:19 PM 42.5736 -82.0283 260° West 330 380 16,200 -1,016 Descending Cleveland Center
Wed 01:33:21 PM 42.5594 -82.1508 261° West 330 380 15,100 -1,143 Descending Cleveland Center
Wed 01:34:04 PM 42.5444 -82.2597 259° West 312 359 14,200 -1,161 Descending Cleveland Center
Wed 01:34:23 PM 42.5414 -82.2881 262° West 314 361 13,900 -968 Descending Cleveland Center
Wed 01:34:35 PM 42.5389 -82.3100 261° West 292 336 13,700 -968 Descending Cleveland Center
Wed 01:35:25 PM 42.5267 -82.3986 259° West 304 350 12,900 -984 Descending Cleveland Center
Wed 01:35:36 PM 42.5225 -82.4267 259° West 306 352 12,700 -871 Descending Cleveland Center
Wed 01:36:27 PM 42.5125 -82.5108 261° West 303 349 12,000 -744 Descending Cleveland Center
Wed 01:37:37 PM 42.4742 -82.6383 248° West 263 303 11,200 -1,053 Descending Cleveland Center
Wed 01:38:38 PM 42.4425 -82.7275 244° Southwest 264 304 9,700 -1,345 Descending Cleveland Center
Wed 01:39:33 PM 42.4297 -82.7992 256° West 268 308 8,600 -1,385 Descending Cleveland Center
Wed 01:40:35 PM 42.4089 -82.9150 256° West 269 310 7,000 -968 Descending Cleveland Center
Wed 01:41:37 PM 42.3928 -83.0064 257° West 259 298 6,600 -992 Descending Cleveland Center
Wed 01:42:42 PM 42.3744 -83.1111 257° West 244 281 4,900 -1,550 Descending Cleveland Center
Wed 01:43:37 PM 42.3581 -83.1881 254° West 232 267 3,500 -942 Descending Cleveland Center
Wed 01:44:43 PM 42.3281 -83.2514 237° Southwest 230 265 3,000 -656 Descending Cleveland Center
Wed 01:45:45 PM 42.2792 -83.2900 210° Southwest 136 157 2,100 -829 Descending Cleveland Center
Wed 01:46:46 PM 42.2436 -83.3161 209° Southwest 138 159 1,300 -532 Descending Cleveland Center
Wed 01:47:49 PM 42.2131 -83.3378 208° Southwest 147 169 1,000 -286 Descending Cleveland Center
Wed 01:49:00 PM 42.2000 -83.3500 236° Southwest  Level FlightAware Approximate
Wed 01:56:00 PM 42.2124 -83.3534 236° Southwest  Level Estimated

Login

Don't have an account? Register now (free) for customized features, flight alerts, and more!